sensor_id;sensor_type;location;lat;lon;timestamp;pressure;altitude;pressure_sealevel;temperature;humidity
69318;BME280;56457;52.190;4.440;2023-04-06T00:00:57;101873.88;;;6.42;100.00
69318;BME280;56457;52.190;4.440;2023-04-06T00:01:58;101883.41;;;6.40;100.00
69318;BME280;56457;52.190;4.440;2023-04-06T00:02:58;101879.97;;;6.41;100.00
69318;BME280;56457;52.190;4.440;2023-04-06T00:03:58;101882.59;;;6.42;100.00
69318;BME280;56457;52.190;4.440;2023-04-06T00:04:59;101877.38;;;6.42;100.00
69318;BME280;56457;52.190;4.440;2023-04-06T00:05:59;101873.88;;;6.42;100.00
69318;BME280;56457;52.190;4.440;2023-04-06T00:07:00;101878.13;;;6.38;100.00
69318;BME280;56457;52.190;4.440;2023-04-06T00:08:00;101871.09;;;6.34;100.00
69318;BME280;56457;52.190;4.440;2023-04-06T00:09:00;101865.03;;;6.35;100.00
69318;BME280;56457;52.190;4.440;2023-04-06T00:10:01;101874.47;;;6.32;100.00
69318;BME280;56457;52.190;4.440;2023-04-06T00:11:02;101864.03;;;6.30;100.00
69318;BME280;56457;52.190;4.440;2023-04-06T00:12:02;101870.09;;;6.29;100.00
69318;BME280;56457;52.190;4.440;2023-04-06T00:13:03;101861.31;;;6.27;100.00
69318;BME280;56457;52.190;4.440;2023-04-06T00:14:03;101867.47;;;6.29;100.00
69318;BME280;56457;52.190;4.440;2023-04-06T00:15:04;101863.94;;;6.27;100.00
69318;BME280;56457;52.190;4.440;2023-04-06T00:16:05;101864.03;;;6.30;100.00
69318;BME280;56457;52.190;4.440;2023-04-06T00:17:06;101857.84;;;6.27;100.00
69318;BME280;56457;52.190;4.440;2023-04-06T00:18:06;101858.72;;;6.27;100.00
69318;BME280;56457;52.190;4.440;2023-04-06T00:19:07;101856.91;;;6.23;100.00
69318;BME280;56457;52.190;4.440;2023-04-06T00:20:07;101858.56;;;6.21;100.00
69318;BME280;56457;52.190;4.440;2023-04-06T00:21:10;101848.09;;;6.19;100.00
69318;BME280;56457;52.190;4.440;2023-04-06T00:22:11;101856.81;;;6.20;100.00
69318;BME280;56457;52.190;4.440;2023-04-06T00:23:11;101850.75;;;6.21;100.00
69318;BME280;56457;52.190;4.440;2023-04-06T00:24:12;101850.66;;;6.16;100.00
69318;BME280;56457;52.190;4.440;2023-04-06T00:25:12;101849.81;;;6.17;100.00
69318;BME280;56457;52.190;4.440;2023-04-06T00:26:13;101850.69;;;6.18;100.00
69318;BME280;56457;52.190;4.440;2023-04-06T00:27:13;101840.22;;;6.16;100.00
69318;BME280;56457;52.190;4.440;2023-04-06T00:28:13;101846.34;;;6.18;100.00
69318;BME280;56457;52.190;4.440;2023-04-06T00:29:14;101845.47;;;6.18;100.00
69318;BME280;56457;52.190;4.440;2023-04-06T00:30:15;101841.84;;;6.13;100.00
69318;BME280;56457;52.190;4.440;2023-04-06T00:31:15;101840.97;;;6.12;100.00
69318;BME280;56457;52.190;4.440;2023-04-06T00:32:15;101837.47;;;6.10;100.00
69318;BME280;56457;52.190;4.440;2023-04-06T00:33:16;101836.66;;;6.13;100.00
69318;BME280;56457;52.190;4.440;2023-04-06T00:34:16;101833.97;;;6.10;100.00
69318;BME280;56457;52.190;4.440;2023-04-06T00:35:17;101828.75;;;6.10;100.00
69318;BME280;56457;52.190;4.440;2023-04-06T00:36:17;101841.78;;;6.10;100.00
69318;BME280;56457;52.190;4.440;2023-04-06T00:37:17;101835.63;;;6.08;100.00
69318;BME280;56457;52.190;4.440;2023-04-06T00:38:19;101826.94;;;6.07;100.00
69318;BME280;56457;52.190;4.440;2023-04-06T00:39:19;101837.44;;;6.09;100.00
69318;BME280;56457;52.190;4.440;2023-04-06T00:40:20;101834.84;;;6.10;100.00
69318;BME280;56457;52.190;4.440;2023-04-06T00:41:20;101829.59;;;6.09;100.00
69318;BME280;56457;52.190;4.440;2023-04-06T00:42:21;101827.81;;;6.08;100.00
69318;BME280;56457;52.190;4.440;2023-04-06T00:43:25;101823.41;;;6.05;100.00
69318;BME280;56457;52.190;4.440;2023-04-06T00:44:26;101825.16;;;6.05;100.00
69318;BME280;56457;52.190;4.440;2023-04-06T00:45:26;101829.44;;;6.03;100.00
69318;BME280;56457;52.190;4.440;2023-04-06T00:46:27;101830.19;;;5.99;100.00
69318;BME280;56457;52.190;4.440;2023-04-06T00:47:28;101830.22;;;6.00;100.00
69318;BME280;56457;52.190;4.440;2023-04-06T00:48:28;101823.25;;;5.99;100.00
69318;BME280;56457;52.190;4.440;2023-04-06T00:49:31;101821.53;;;6.00;100.00
69318;BME280;56457;52.190;4.440;2023-04-06T00:50:32;101816.25;;;5.97;100.00
69318;BME280;56457;52.190;4.440;2023-04-06T00:51:32;101824.97;;;5.99;100.00
69318;BME280;56457;52.190;4.440;2023-04-06T00:52:33;101817.16;;;5.99;100.00
69318;BME280;56457;52.190;4.440;2023-04-06T00:53:34;101815.34;;;5.96;100.00
69318;BME280;56457;52.190;4.440;2023-04-06T00:54:34;101811.09;;;5.98;100.00
69318;BME280;56457;52.190;4.440;2023-04-06T00:55:35;101812.81;;;5.98;100.00
69318;BME280;56457;52.190;4.440;2023-04-06T00:56:36;101815.41;;;5.98;100.00
69318;BME280;56457;52.190;4.440;2023-04-06T00:57:36;101807.53;;;5.96;100.00
69318;BME280;56457;52.190;4.440;2023-04-06T00:58:37;101813.66;;;5.97;100.00
69318;BME280;56457;52.190;4.440;2023-04-06T00:59:39;101809.31;;;5.97;100.00
69318;BME280;56457;52.190;4.440;2023-04-06T01:00:39;101811.94;;;5.97;100.00
69318;BME280;56457;52.190;4.440;2023-04-06T01:01:40;101804.06;;;5.96;100.00
69318;BME280;56457;52.190;4.440;2023-04-06T01:02:40;101805.84;;;5.97;100.00
69318;BME280;56457;52.190;4.440;2023-04-06T01:03:40;101795.44;;;5.98;100.00
69318;BME280;56457;52.190;4.440;2023-04-06T01:04:42;101805.00;;;5.98;100.00
69318;BME280;56457;52.190;4.440;2023-04-06T01:05:42;101796.34;;;5.99;100.00
69318;BME280;56457;52.190;4.440;2023-04-06T01:06:44;101794.63;;;6.01;100.00
69318;BME280;56457;52.190;4.440;2023-04-06T01:07:45;101791.16;;;6.00;100.00
69318;BME280;56457;52.190;4.440;2023-04-06T01:08:45;101792.06;;;6.02;100.00
69318;BME280;56457;52.190;4.440;2023-04-06T01:09:46;101788.72;;;6.06;100.00
69318;BME280;56457;52.190;4.440;2023-04-06T01:10:46;101786.03;;;6.03;100.00
69318;BME280;56457;52.190;4.440;2023-04-06T01:11:47;101793.03;;;6.06;100.00
69318;BME280;56457;52.190;4.440;2023-04-06T01:12:47;101788.75;;;6.08;100.00
69318;BME280;56457;52.190;4.440;2023-04-06T01:13:47;101785.25;;;6.07;100.00
69318;BME280;56457;52.190;4.440;2023-04-06T01:14:48;101787.06;;;6.10;100.00
69318;BME280;56457;52.190;4.440;2023-04-06T01:15:48;101771.38;;;6.08;100.00
69318;BME280;56457;52.190;4.440;2023-04-06T01:16:49;101784.41;;;6.08;100.00
69318;BME280;56457;52.190;4.440;2023-04-06T01:17:49;101776.56;;;6.07;100.00
69318;BME280;56457;52.190;4.440;2023-04-06T01:18:50;101778.31;;;6.08;100.00
69318;BME280;56457;52.190;4.440;2023-04-06T01:19:50;101784.47;;;6.10;100.00
69318;BME280;56457;52.190;4.440;2023-04-06T01:20:53;101776.66;;;6.10;100.00
69318;BME280;56457;52.190;4.440;2023-04-06T01:21:54;101767.09;;;6.09;100.00
69318;BME280;56457;52.190;4.440;2023-04-06T01:22:54;101763.63;;;6.10;100.00
69318;BME280;56457;52.190;4.440;2023-04-06T01:23:55;101767.09;;;6.09;100.00
69318;BME280;56457;52.190;4.440;2023-04-06T01:24:55;101762.69;;;6.08;100.00
69318;BME280;56457;52.190;4.440;2023-04-06T01:25:56;101767.09;;;6.09;100.00
69318;BME280;56457;52.190;4.440;2023-04-06T01:26:57;101766.22;;;6.10;100.00
69318;BME280;56457;52.190;4.440;2023-04-06T01:27:57;101767.13;;;6.10;100.00
69318;BME280;56457;52.190;4.440;2023-04-06T01:28:58;101763.53;;;6.07;100.00
69318;BME280;56457;52.190;4.440;2023-04-06T01:29:58;101764.47;;;6.09;100.00
69318;BME280;56457;52.190;4.440;2023-04-06T01:30:59;101767.00;;;6.06;100.00
69318;BME280;56457;52.190;4.440;2023-04-06T01:32:00;101766.13;;;6.07;100.00
69318;BME280;56457;52.190;4.440;2023-04-06T01:33:00;101760.94;;;6.07;100.00
69318;BME280;56457;52.190;4.440;2023-04-06T01:34:01;101760.06;;;6.06;100.00
69318;BME280;56457;52.190;4.440;2023-04-06T01:35:01;101754.00;;;6.07;100.00
69318;BME280;56457;52.190;4.440;2023-04-06T01:36:02;101754.88;;;6.08;100.00
69318;BME280;56457;52.190;4.440;2023-04-06T01:37:03;101751.44;;;6.09;100.00
69318;BME280;56457;52.190;4.440;2023-04-06T01:38:03;101755.00;;;6.12;100.00
69318;BME280;56457;52.190;4.440;2023-04-06T01:39:04;101744.59;;;6.14;100.00
69318;BME280;56457;52.190;4.440;2023-04-06T01:40:04;101743.72;;;6.13;100.00
69318;BME280;56457;52.190;4.440;2023-04-06T01:41:05;101748.84;;;6.09;100.00
69318;BME280;56457;52.190;4.440;2023-04-06T01:42:06;101748.03;;;6.11;100.00
69318;BME280;56457;52.190;4.440;2023-04-06T01:43:06;101745.41;;;6.11;100.00
69318;BME280;56457;52.190;4.440;2023-04-06T01:44:06;101746.31;;;6.12;100.00
69318;BME280;56457;52.190;4.440;2023-04-06T01:45:07;101743.66;;;6.10;100.00
69318;BME280;56457;52.190;4.440;2023-04-06T01:46:07;101732.38;;;6.10;100.00
69318;BME280;56457;52.190;4.440;2023-04-06T01:47:08;101743.66;;;6.10;100.00
69318;BME280;56457;52.190;4.440;2023-04-06T01:48:08;101741.97;;;6.12;100.00
69318;BME280;56457;52.190;4.440;2023-04-06T01:49:09;101736.78;;;6.14;100.00
69318;BME280;56457;52.190;4.440;2023-04-06T01:50:09;101739.41;;;6.14;100.00
69318;BME280;56457;52.190;4.440;2023-04-06T01:51:10;101736.00;;;6.16;100.00
69318;BME280;56457;52.190;4.440;2023-04-06T01:52:10;101735.06;;;6.14;100.00
69318;BME280;56457;52.190;4.440;2023-04-06T01:53:11;101735.88;;;6.12;100.00
69318;BME280;56457;52.190;4.440;2023-04-06T01:54:12;101738.47;;;6.12;100.00
69318;BME280;56457;52.190;4.440;2023-04-06T01:55:12;101731.50;;;6.09;100.00
69318;BME280;56457;52.190;4.440;2023-04-06T01:56:12;101725.44;;;6.10;100.00
69318;BME280;56457;52.190;4.440;2023-04-06T01:57:13;101731.53;;;6.12;100.00
69318;BME280;56457;52.190;4.440;2023-04-06T01:58:13;101733.25;;;6.10;100.00
69318;BME280;56457;52.190;4.440;2023-04-06T01:59:13;101728.09;;;6.13;100.00
69318;BME280;56457;52.190;4.440;2023-04-06T02:00:14;101728.06;;;6.12;100.00
69318;BME280;56457;52.190;4.440;2023-04-06T02:01:15;101725.47;;;6.12;100.00
69318;BME280;56457;52.190;4.440;2023-04-06T02:02:15;101728.94;;;6.12;100.00
69318;BME280;56457;52.190;4.440;2023-04-06T02:03:16;101723.66;;;6.09;100.00
69318;BME280;56457;52.190;4.440;2023-04-06T02:04:16;101721.94;;;6.10;100.00
69318;BME280;56457;52.190;4.440;2023-04-06T02:05:17;101727.16;;;6.10;100.00
69318;BME280;56457;52.190;4.440;2023-04-06T02:06:17;101719.28;;;6.08;100.00
69318;BME280;56457;52.190;4.440;2023-04-06T02:07:17;101713.25;;;6.09;100.00
69318;BME280;56457;52.190;4.440;2023-04-06T02:08:18;101715.78;;;6.08;100.00
69318;BME280;56457;52.190;4.440;2023-04-06T02:09:18;101716.66;;;6.08;100.00
69318;BME280;56457;52.190;4.440;2023-04-06T02:10:19;101715.75;;;6.06;100.00
69318;BME280;56457;52.190;4.440;2023-04-06T02:11:19;101707.06;;;6.06;100.00
69318;BME280;56457;52.190;4.440;2023-04-06T02:12:19;101707.94;;;6.06;100.00
69318;BME280;56457;52.190;4.440;2023-04-06T02:13:20;101710.56;;;6.06;100.00
69318;BME280;56457;52.190;4.440;2023-04-06T02:14:20;101709.63;;;6.03;100.00
69318;BME280;56457;52.190;4.440;2023-04-06T02:15:21;101707.06;;;6.06;100.00
69318;BME280;56457;52.190;4.440;2023-04-06T02:16:21;101707.06;;;6.06;100.00
69318;BME280;56457;52.190;4.440;2023-04-06T02:17:22;101705.34;;;6.06;100.00
69318;BME280;56457;52.190;4.440;2023-04-06T02:18:22;101698.25;;;6.01;100.00
69318;BME280;56457;52.190;4.440;2023-04-06T02:19:23;101701.84;;;6.06;100.00
69318;BME280;56457;52.190;4.440;2023-04-06T02:20:23;101703.44;;;5.99;100.00
69318;BME280;56457;52.190;4.440;2023-04-06T02:21:23;101697.38;;;6.00;100.00
69318;BME280;56457;52.190;4.440;2023-04-06T02:22:24;101698.25;;;6.01;100.00
69318;BME280;56457;52.190;4.440;2023-04-06T02:23:24;101706.06;;;6.01;100.00
69318;BME280;56457;52.190;4.440;2023-04-06T02:24:25;101699.09;;;6.00;100.00
69318;BME280;56457;52.190;4.440;2023-04-06T02:25:25;101704.34;;;6.01;100.00
69318;BME280;56457;52.190;4.440;2023-04-06T02:26:26;101699.97;;;6.00;100.00
69318;BME280;56457;52.190;4.440;2023-04-06T02:27:27;101697.34;;;5.99;100.00
69318;BME280;56457;52.190;4.440;2023-04-06T02:28:27;101702.56;;;5.99;100.00
69318;BME280;56457;52.190;4.440;2023-04-06T02:29:27;101700.00;;;6.02;100.00
69318;BME280;56457;52.190;4.440;2023-04-06T02:30:28;101699.13;;;6.01;100.00
69318;BME280;56457;52.190;4.440;2023-04-06T02:31:29;101696.50;;;6.00;100.00
69318;BME280;56457;52.190;4.440;2023-04-06T02:32:30;101700.88;;;6.02;100.00
69318;BME280;56457;52.190;4.440;2023-04-06T02:33:30;101694.88;;;6.03;100.00
69318;BME280;56457;52.190;4.440;2023-04-06T02:34:30;101690.53;;;6.04;100.00
69318;BME280;56457;52.190;4.440;2023-04-06T02:35:31;101693.06;;;6.02;100.00
69318;BME280;56457;52.190;4.440;2023-04-06T02:36:32;101690.53;;;6.04;100.00
69318;BME280;56457;52.190;4.440;2023-04-06T02:37:32;101682.66;;;6.02;100.00
69318;BME280;56457;52.190;4.440;2023-04-06T02:38:32;101692.19;;;6.02;100.00
69318;BME280;56457;52.190;4.440;2023-04-06T02:39:33;101691.38;;;6.03;100.00
69318;BME280;56457;52.190;4.440;2023-04-06T02:40:33;101692.16;;;6.00;100.00
69318;BME280;56457;52.190;4.440;2023-04-06T02:41:33;101687.09;;;6.05;100.00
69318;BME280;56457;52.190;4.440;2023-04-06T02:42:34;101693.13;;;6.04;100.00
69318;BME280;56457;52.190;4.440;2023-04-06T02:43:35;101692.28;;;6.05;100.00
69318;BME280;56457;52.190;4.440;2023-04-06T02:44:35;101689.69;;;6.05;100.00
69318;BME280;56457;52.190;4.440;2023-04-06T02:45:36;101679.16;;;6.00;100.00
69318;BME280;56457;52.190;4.440;2023-04-06T02:46:36;101689.69;;;6.05;100.00
69318;BME280;56457;52.190;4.440;2023-04-06T02:47:36;101679.19;;;6.02;100.00
69318;BME280;56457;52.190;4.440;2023-04-06T02:48:37;101687.88;;;6.02;100.00
69318;BME280;56457;52.190;4.440;2023-04-06T02:49:37;101685.25;;;6.02;100.00
69318;BME280;56457;52.190;4.440;2023-04-06T02:50:38;101680.75;;;5.95;100.00
69318;BME280;56457;52.190;4.440;2023-04-06T02:51:38;101682.56;;;5.98;100.00
69318;BME280;56457;52.190;4.440;2023-04-06T02:52:38;101680.81;;;5.97;100.00
69318;BME280;56457;52.190;4.440;2023-04-06T02:53:39;101682.59;;;5.99;100.00
69318;BME280;56457;52.190;4.440;2023-04-06T02:54:39;101686.03;;;5.97;100.00
69318;BME280;56457;52.190;4.440;2023-04-06T02:55:40;101677.38;;;5.99;100.00
69318;BME280;56457;52.190;4.440;2023-04-06T02:56:40;101674.75;;;5.98;100.00
69318;BME280;56457;52.190;4.440;2023-04-06T02:57:40;101679.97;;;5.98;100.00
69318;BME280;56457;52.190;4.440;2023-04-06T02:58:41;101673.88;;;5.97;100.00
69318;BME280;56457;52.190;4.440;2023-04-06T02:59:41;101674.75;;;5.98;100.00
69318;BME280;56457;52.190;4.440;2023-04-06T03:00:41;101672.94;;;5.95;100.00
69318;BME280;56457;52.190;4.440;2023-04-06T03:01:42;101665.09;;;5.93;100.00
69318;BME280;56457;52.190;4.440;2023-04-06T03:02:42;101668.72;;;6.00;100.00
69318;BME280;56457;52.190;4.440;2023-04-06T03:03:43;101668.72;;;6.00;100.00
69318;BME280;56457;52.190;4.440;2023-04-06T03:04:43;101669.53;;;5.98;100.00
69318;BME280;56457;52.190;4.440;2023-04-06T03:05:44;101671.31;;;5.99;100.00
69318;BME280;56457;52.190;4.440;2023-04-06T03:06:44;101659.91;;;5.95;100.00
69318;BME280;56457;52.190;4.440;2023-04-06T03:07:45;101660.78;;;5.96;100.00
69318;BME280;56457;52.190;4.440;2023-04-06T03:08:45;101663.41;;;5.96;100.00
69318;BME280;56457;52.190;4.440;2023-04-06T03:09:47;101665.09;;;5.93;100.00
69318;BME280;56457;52.190;4.440;2023-04-06T03:10:47;101666.88;;;5.96;100.00
69318;BME280;56457;52.190;4.440;2023-04-06T03:11:48;101663.38;;;5.94;100.00
69318;BME280;56457;52.190;4.440;2023-04-06T03:12:48;101658.00;;;5.89;100.00
69318;BME280;56457;52.190;4.440;2023-04-06T03:13:48;101665.94;;;5.92;100.00
69318;BME280;56457;52.190;4.440;2023-04-06T03:14:49;101664.25;;;5.94;100.00
69318;BME280;56457;52.190;4.440;2023-04-06T03:15:49;101659.00;;;5.93;100.00
69318;BME280;56457;52.190;4.440;2023-04-06T03:16:50;101655.53;;;5.92;100.00
69318;BME280;56457;52.190;4.440;2023-04-06T03:17:50;101657.28;;;5.93;100.00
69318;BME280;56457;52.190;4.440;2023-04-06T03:18:50;101660.72;;;5.92;100.00
69318;BME280;56457;52.190;4.440;2023-04-06T03:19:51;101661.63;;;5.94;100.00
69318;BME280;56457;52.190;4.440;2023-04-06T03:20:51;101659.91;;;5.95;100.00
69318;BME280;56457;52.190;4.440;2023-04-06T03:21:53;101660.72;;;5.92;100.00
69318;BME280;56457;52.190;4.440;2023-04-06T03:22:54;101658.97;;;5.91;100.00
69318;BME280;56457;52.190;4.440;2023-04-06T03:23:55;101651.22;;;5.94;100.00
69318;BME280;56457;52.190;4.440;2023-04-06T03:24:55;101654.78;;;5.97;100.00
69318;BME280;56457;52.190;4.440;2023-04-06T03:25:56;101652.06;;;5.93;100.00
69318;BME280;56457;52.190;4.440;2023-04-06T03:26:56;101652.09;;;5.95;100.00
69318;BME280;56457;52.190;4.440;2023-04-06T03:27:56;101652.91;;;5.92;100.00
69318;BME280;56457;52.190;4.440;2023-04-06T03:28:57;101651.97;;;5.90;100.00
69318;BME280;56457;52.190;4.440;2023-04-06T03:29:57;101648.56;;;5.91;100.00
69318;BME280;56457;52.190;4.440;2023-04-06T03:30:58;101648.56;;;5.91;100.00
69318;BME280;56457;52.190;4.440;2023-04-06T03:31:58;101651.19;;;5.93;100.00
69318;BME280;56457;52.190;4.440;2023-04-06T03:32:58;101648.66;;;5.96;100.00
69318;BME280;56457;52.190;4.440;2023-04-06T03:33:59;101648.59;;;5.93;100.00
69318;BME280;56457;52.190;4.440;2023-04-06T03:34:59;101641.66;;;5.93;100.00
69318;BME280;56457;52.190;4.440;2023-04-06T03:36:00;101644.28;;;5.95;100.00
69318;BME280;56457;52.190;4.440;2023-04-06T03:37:00;101643.41;;;5.94;100.00
69318;BME280;56457;52.190;4.440;2023-04-06T03:38:01;101640.84;;;5.96;100.00
69318;BME280;56457;52.190;4.440;2023-04-06T03:39:01;101639.06;;;5.95;100.00
69318;BME280;56457;52.190;4.440;2023-04-06T03:40:02;101646.03;;;5.96;100.00
69318;BME280;56457;52.190;4.440;2023-04-06T03:41:02;101640.78;;;5.93;100.00
69318;BME280;56457;52.190;4.440;2023-04-06T03:42:03;101642.53;;;5.94;100.00
69318;BME280;56457;52.190;4.440;2023-04-06T03:43:05;101631.22;;;5.92;100.00
69318;BME280;56457;52.190;4.440;2023-04-06T03:44:06;101633.94;;;5.97;100.00
69318;BME280;56457;52.190;4.440;2023-04-06T03:45:06;101636.56;;;5.98;100.00
69318;BME280;56457;52.190;4.440;2023-04-06T03:46:07;101640.00;;;5.97;100.00
69318;BME280;56457;52.190;4.440;2023-04-06T03:47:07;101638.34;;;6.01;100.00
69318;BME280;56457;52.190;4.440;2023-04-06T03:48:07;101635.69;;;5.98;100.00
69318;BME280;56457;52.190;4.440;2023-04-06T03:49:08;101640.03;;;5.99;100.00
69318;BME280;56457;52.190;4.440;2023-04-06T03:50:08;101633.06;;;5.98;100.00
69318;BME280;56457;52.190;4.440;2023-04-06T03:51:09;101630.47;;;5.98;100.00
69318;BME280;56457;52.190;4.440;2023-04-06T03:52:09;101627.94;;;6.01;100.00
69318;BME280;56457;52.190;4.440;2023-04-06T03:53:10;101629.66;;;6.00;100.00
69318;BME280;56457;52.190;4.440;2023-04-06T03:54:11;101628.78;;;6.00;100.00
69318;BME280;56457;52.190;4.440;2023-04-06T03:55:11;101633.97;;;6.00;100.00
69318;BME280;56457;52.190;4.440;2023-04-06T03:56:11;101633.13;;;6.01;100.00
69318;BME280;56457;52.190;4.440;2023-04-06T03:57:12;101628.81;;;6.01;100.00
69318;BME280;56457;52.190;4.440;2023-04-06T03:58:12;101626.19;;;6.01;100.00
69318;BME280;56457;52.190;4.440;2023-04-06T03:59:13;101625.34;;;6.02;100.00
69318;BME280;56457;52.190;4.440;2023-04-06T04:00:13;101626.13;;;5.97;100.00
69318;BME280;56457;52.190;4.440;2023-04-06T04:01:14;101627.03;;;5.99;100.00
69318;BME280;56457;52.190;4.440;2023-04-06T04:02:14;101629.69;;;6.02;100.00
69318;BME280;56457;52.190;4.440;2023-04-06T04:03:14;101623.69;;;6.04;100.00
69318;BME280;56457;52.190;4.440;2023-04-06T04:04:15;101634.13;;;6.06;100.00
69318;BME280;56457;52.190;4.440;2023-04-06T04:05:15;101631.53;;;6.06;100.00
69318;BME280;56457;52.190;4.440;2023-04-06T04:06:16;101629.00;;;6.09;100.00
69318;BME280;56457;52.190;4.440;2023-04-06T04:07:16;101627.22;;;6.08;100.00
69318;BME280;56457;52.190;4.440;2023-04-06T04:08:17;101633.38;;;6.10;100.00
69318;BME280;56457;52.190;4.440;2023-04-06T04:09:17;101629.00;;;6.09;100.00
69318;BME280;56457;52.190;4.440;2023-04-06T04:10:17;101630.78;;;6.11;100.00
69318;BME280;56457;52.190;4.440;2023-04-06T04:11:18;101631.69;;;6.13;100.00
69318;BME280;56457;52.190;4.440;2023-04-06T04:12:18;101633.44;;;6.14;100.00
69318;BME280;56457;52.190;4.440;2023-04-06T04:13:19;101636.84;;;6.10;100.00
69318;BME280;56457;52.190;4.440;2023-04-06T04:14:19;101637.78;;;6.14;100.00
69318;BME280;56457;52.190;4.440;2023-04-06T04:15:20;101631.75;;;6.15;100.00
69318;BME280;56457;52.190;4.440;2023-04-06T04:16:20;101632.72;;;6.20;100.00
69318;BME280;56457;52.190;4.440;2023-04-06T04:17:21;101633.56;;;6.19;100.00
69318;BME280;56457;52.190;4.440;2023-04-06T04:18:21;101630.94;;;6.17;100.00
69318;BME280;56457;52.190;4.440;2023-04-06T04:19:22;101629.25;;;6.21;100.00
69318;BME280;56457;52.190;4.440;2023-04-06T04:20:22;101632.66;;;6.17;100.00
69318;BME280;56457;52.190;4.440;2023-04-06T04:21:23;101635.25;;;6.17;100.00
69318;BME280;56457;52.190;4.440;2023-04-06T04:22:23;101634.41;;;6.18;100.00
69318;BME280;56457;52.190;4.440;2023-04-06T04:23:23;101635.28;;;6.18;100.00
69318;BME280;56457;52.190;4.440;2023-04-06T04:24:24;101630.03;;;6.15;100.00
69318;BME280;56457;52.190;4.440;2023-04-06T04:25:24;101627.34;;;6.14;100.00
69318;BME280;56457;52.190;4.440;2023-04-06T04:26:25;101630.81;;;6.13;100.00
69318;BME280;56457;52.190;4.440;2023-04-06T04:27:25;101627.31;;;6.11;100.00
69318;BME280;56457;52.190;4.440;2023-04-06T04:28:26;101627.31;;;6.11;100.00
69318;BME280;56457;52.190;4.440;2023-04-06T04:29:26;101627.34;;;6.12;100.00
69318;BME280;56457;52.190;4.440;2023-04-06T04:30:27;101627.22;;;6.08;100.00
69318;BME280;56457;52.190;4.440;2023-04-06T04:31:27;101629.81;;;6.08;100.00
69318;BME280;56457;52.190;4.440;2023-04-06T04:32:27;101630.75;;;6.10;100.00
69318;BME280;56457;52.190;4.440;2023-04-06T04:33:28;101628.16;;;6.10;100.00
69318;BME280;56457;52.190;4.440;2023-04-06T04:34:28;101631.63;;;6.10;100.00
69318;BME280;56457;52.190;4.440;2023-04-06T04:35:29;101626.44;;;6.12;100.00
69318;BME280;56457;52.190;4.440;2023-04-06T04:36:29;101625.56;;;6.10;100.00
69318;BME280;56457;52.190;4.440;2023-04-06T04:37:29;101626.41;;;6.09;100.00
69318;BME280;56457;52.190;4.440;2023-04-06T04:38:30;101630.69;;;6.08;100.00
69318;BME280;56457;52.190;4.440;2023-04-06T04:39:31;101621.97;;;6.06;100.00
69318;BME280;56457;52.190;4.440;2023-04-06T04:40:31;101625.50;;;6.08;100.00
69318;BME280;56457;52.190;4.440;2023-04-06T04:41:31;101618.63;;;6.10;100.00
69318;BME280;56457;52.190;4.440;2023-04-06T04:42:32;101619.41;;;6.08;100.00
69318;BME280;56457;52.190;4.440;2023-04-06T04:43:32;101624.63;;;6.08;100.00
69318;BME280;56457;52.190;4.440;2023-04-06T04:44:33;101628.16;;;6.10;100.00
69318;BME280;56457;52.190;4.440;2023-04-06T04:45:33;101628.19;;;6.11;100.00
69318;BME280;56457;52.190;4.440;2023-04-06T04:46:33;101622.94;;;6.10;100.00
69318;BME280;56457;52.190;4.440;2023-04-06T04:47:34;101629.00;;;6.09;100.00
69318;BME280;56457;52.190;4.440;2023-04-06T04:48:34;101620.28;;;6.08;100.00
69318;BME280;56457;52.190;4.440;2023-04-06T04:49:35;101623.81;;;6.10;100.00
69318;BME280;56457;52.190;4.440;2023-04-06T04:50:35;101623.81;;;6.10;100.00
69318;BME280;56457;52.190;4.440;2023-04-06T04:51:36;101621.25;;;6.12;100.00
69318;BME280;56457;52.190;4.440;2023-04-06T04:52:37;101623.78;;;6.09;100.00
69318;BME280;56457;52.190;4.440;2023-04-06T04:53:37;101629.91;;;6.11;100.00
69318;BME280;56457;52.190;4.440;2023-04-06T04:54:38;101620.47;;;6.16;100.00
69318;BME280;56457;52.190;4.440;2023-04-06T04:55:40;101618.78;;;6.18;100.00
69318;BME280;56457;52.190;4.440;2023-04-06T04:56:40;101620.63;;;6.22;100.00
69318;BME280;56457;52.190;4.440;2023-04-06T04:57:41;101621.50;;;6.23;100.00
69318;BME280;56457;52.190;4.440;2023-04-06T04:58:41;101617.03;;;6.17;100.00
69318;BME280;56457;52.190;4.440;2023-04-06T04:59:42;101622.25;;;6.18;100.00
69318;BME280;56457;52.190;4.440;2023-04-06T05:00:43;101624.88;;;6.20;100.00
69318;BME280;56457;52.190;4.440;2023-04-06T05:01:43;101624.09;;;6.23;100.00
69318;BME280;56457;52.190;4.440;2023-04-06T05:02:43;101622.34;;;6.22;100.00
69318;BME280;56457;52.190;4.440;2023-04-06T05:03:44;101620.66;;;6.24;100.00
69318;BME280;56457;52.190;4.440;2023-04-06T05:04:45;101622.47;;;6.28;100.00
69318;BME280;56457;52.190;4.440;2023-04-06T05:05:45;101624.19;;;6.27;100.00
69318;BME280;56457;52.190;4.440;2023-04-06T05:06:46;101619.03;;;6.29;100.00
69318;BME280;56457;52.190;4.440;2023-04-06T05:07:46;101622.50;;;6.29;100.00
69318;BME280;56457;52.190;4.440;2023-04-06T05:08:46;101618.09;;;6.27;100.00
69318;BME280;56457;52.190;4.440;2023-04-06T05:09:47;101616.34;;;6.26;100.00
69318;BME280;56457;52.190;4.440;2023-04-06T05:10:47;101622.41;;;6.26;100.00
69318;BME280;56457;52.190;4.440;2023-04-06T05:11:48;101619.81;;;6.26;100.00
69318;BME280;56457;52.190;4.440;2023-04-06T05:12:48;101620.69;;;6.27;100.00
69318;BME280;56457;52.190;4.440;2023-04-06T05:13:49;101619.81;;;6.26;100.00
69318;BME280;56457;52.190;4.440;2023-04-06T05:14:49;101626.75;;;6.26;100.00
69318;BME280;56457;52.190;4.440;2023-04-06T05:15:49;101618.97;;;6.27;100.00
69318;BME280;56457;52.190;4.440;2023-04-06T05:16:50;101617.31;;;6.31;100.00